sensor_id;sensor_type;location;lat;lon;timestamp;temperature;humidity
26336;DHT22;14047;50.936;4.654;2023-10-08T00:01:19;16.70;99.90
26336;DHT22;14047;50.936;4.654;2023-10-08T00:03:47;16.80;99.90
26336;DHT22;14047;50.936;4.654;2023-10-08T00:06:18;16.80;99.90
26336;DHT22;14047;50.936;4.654;2023-10-08T00:08:46;17.00;99.90
26336;DHT22;14047;50.936;4.654;2023-10-08T00:11:13;17.00;99.90
26336;DHT22;14047;50.936;4.654;2023-10-08T00:13:42;17.10;99.90
26336;DHT22;14047;50.936;4.654;2023-10-08T00:16:10;17.00;99.90
26336;DHT22;14047;50.936;4.654;2023-10-08T00:18:38;16.90;99.90
26336;DHT22;14047;50.936;4.654;2023-10-08T00:21:05;17.00;99.90
26336;DHT22;14047;50.936;4.654;2023-10-08T00:23:55;17.10;99.90
26336;DHT22;14047;50.936;4.654;2023-10-08T00:26:23;17.10;99.90
26336;DHT22;14047;50.936;4.654;2023-10-08T00:29:00;17.10;99.90
26336;DHT22;14047;50.936;4.654;2023-10-08T00:31:27;17.00;99.90
26336;DHT22;14047;50.936;4.654;2023-10-08T00:34:04;16.90;99.90
26336;DHT22;14047;50.936;4.654;2023-10-08T00:36:44;16.90;99.90
26336;DHT22;14047;50.936;4.654;2023-10-08T00:39:12;16.90;99.90
26336;DHT22;14047;50.936;4.654;2023-10-08T00:41:58;16.90;99.90
26336;DHT22;14047;50.936;4.654;2023-10-08T00:44:24;17.00;99.90
26336;DHT22;14047;50.936;4.654;2023-10-08T00:46:59;17.00;99.90
26336;DHT22;14047;50.936;4.654;2023-10-08T00:49:27;17.00;99.90
26336;DHT22;14047;50.936;4.654;2023-10-08T00:52:03;17.00;99.90
26336;DHT22;14047;50.936;4.654;2023-10-08T00:54:39;17.10;99.90
26336;DHT22;14047;50.936;4.654;2023-10-08T00:57:19;17.10;99.90
26336;DHT22;14047;50.936;4.654;2023-10-08T00:59:48;17.00;99.90
26336;DHT22;14047;50.936;4.654;2023-10-08T01:02:23;16.70;99.90
26336;DHT22;14047;50.936;4.654;2023-10-08T01:04:51;16.70;99.90
26336;DHT22;14047;50.936;4.654;2023-10-08T01:07:17;16.70;99.90
26336;DHT22;14047;50.936;4.654;2023-10-08T01:09:45;16.80;99.90
26336;DHT22;14047;50.936;4.654;2023-10-08T01:12:23;16.70;99.90
26336;DHT22;14047;50.936;4.654;2023-10-08T01:14:54;16.70;99.90
26336;DHT22;14047;50.936;4.654;2023-10-08T01:17:24;16.70;99.90
26336;DHT22;14047;50.936;4.654;2023-10-08T01:19:51;16.60;99.90
26336;DHT22;14047;50.936;4.654;2023-10-08T01:22:25;16.60;99.90
26336;DHT22;14047;50.936;4.654;2023-10-08T01:24:54;16.50;99.90
26336;DHT22;14047;50.936;4.654;2023-10-08T01:27:21;16.50;99.90
26336;DHT22;14047;50.936;4.654;2023-10-08T01:29:53;16.40;99.90
26336;DHT22;14047;50.936;4.654;2023-10-08T01:32:20;16.20;99.90
26336;DHT22;14047;50.936;4.654;2023-10-08T01:34:49;16.20;99.90
26336;DHT22;14047;50.936;4.654;2023-10-08T01:37:17;16.20;99.90
26336;DHT22;14047;50.936;4.654;2023-10-08T01:39:47;16.30;99.90
26336;DHT22;14047;50.936;4.654;2023-10-08T01:42:16;16.20;99.90
26336;DHT22;14047;50.936;4.654;2023-10-08T01:44:50;16.00;99.90
26336;DHT22;14047;50.936;4.654;2023-10-08T01:47:21;16.10;99.90
26336;DHT22;14047;50.936;4.654;2023-10-08T01:49:51;16.20;99.90
26336;DHT22;14047;50.936;4.654;2023-10-08T01:52:23;16.20;99.90
26336;DHT22;14047;50.936;4.654;2023-10-08T01:54:50;15.80;99.90
26336;DHT22;14047;50.936;4.654;2023-10-08T01:57:19;15.60;99.90
26336;DHT22;14047;50.936;4.654;2023-10-08T01:59:45;15.60;99.90
26336;DHT22;14047;50.936;4.654;2023-10-08T02:02:11;15.70;99.90
26336;DHT22;14047;50.936;4.654;2023-10-08T02:04:43;15.80;99.90
26336;DHT22;14047;50.936;4.654;2023-10-08T02:07:09;15.80;99.90
26336;DHT22;14047;50.936;4.654;2023-10-08T02:09:39;15.80;99.90
26336;DHT22;14047;50.936;4.654;2023-10-08T02:12:05;15.90;99.90
26336;DHT22;14047;50.936;4.654;2023-10-08T02:14:31;16.00;99.90
26336;DHT22;14047;50.936;4.654;2023-10-08T02:17:02;16.20;99.90
26336;DHT22;14047;50.936;4.654;2023-10-08T02:19:35;16.20;99.90
26336;DHT22;14047;50.936;4.654;2023-10-08T02:22:03;16.20;99.90
26336;DHT22;14047;50.936;4.654;2023-10-08T02:24:36;16.20;99.90
26336;DHT22;14047;50.936;4.654;2023-10-08T02:27:02;16.30;99.90
26336;DHT22;14047;50.936;4.654;2023-10-08T02:29:30;16.40;99.90
26336;DHT22;14047;50.936;4.654;2023-10-08T02:31:57;16.40;99.90
26336;DHT22;14047;50.936;4.654;2023-10-08T02:34:23;16.30;99.90
26336;DHT22;14047;50.936;4.654;2023-10-08T02:36:49;16.40;99.90
26336;DHT22;14047;50.936;4.654;2023-10-08T02:39:16;16.40;99.90
26336;DHT22;14047;50.936;4.654;2023-10-08T02:41:52;16.40;99.90
26336;DHT22;14047;50.936;4.654;2023-10-08T02:44:19;16.50;99.90
26336;DHT22;14047;50.936;4.654;2023-10-08T02:46:49;16.50;99.90
26336;DHT22;14047;50.936;4.654;2023-10-08T02:49:18;16.50;99.90
26336;DHT22;14047;50.936;4.654;2023-10-08T02:51:52;16.60;99.90
26336;DHT22;14047;50.936;4.654;2023-10-08T02:54:20;16.60;99.90
26336;DHT22;14047;50.936;4.654;2023-10-08T02:56:51;16.70;99.90
26336;DHT22;14047;50.936;4.654;2023-10-08T02:59:18;16.60;99.90
26336;DHT22;14047;50.936;4.654;2023-10-08T03:01:47;16.70;99.90
26336;DHT22;14047;50.936;4.654;2023-10-08T03:04:15;16.70;99.90
26336;DHT22;14047;50.936;4.654;2023-10-08T03:06:48;16.70;99.90
26336;DHT22;14047;50.936;4.654;2023-10-08T03:09:19;16.70;99.90
26336;DHT22;14047;50.936;4.654;2023-10-08T03:11:57;16.70;99.90
26336;DHT22;14047;50.936;4.654;2023-10-08T03:14:24;16.70;99.90
26336;DHT22;14047;50.936;4.654;2023-10-08T03:17:08;16.70;99.90
26336;DHT22;14047;50.936;4.654;2023-10-08T03:19:34;16.80;99.90
26336;DHT22;14047;50.936;4.654;2023-10-08T03:22:01;16.80;99.90
26336;DHT22;14047;50.936;4.654;2023-10-08T03:24:30;16.80;99.90
26336;DHT22;14047;50.936;4.654;2023-10-08T03:27:03;16.90;99.90
26336;DHT22;14047;50.936;4.654;2023-10-08T03:29:34;16.90;99.90
26336;DHT22;14047;50.936;4.654;2023-10-08T03:32:12;16.90;99.90
26336;DHT22;14047;50.936;4.654;2023-10-08T03:34:47;17.00;99.90
26336;DHT22;14047;50.936;4.654;2023-10-08T03:37:20;17.00;99.90
26336;DHT22;14047;50.936;4.654;2023-10-08T03:39:50;17.00;99.90
26336;DHT22;14047;50.936;4.654;2023-10-08T03:42:21;17.10;99.90
26336;DHT22;14047;50.936;4.654;2023-10-08T03:44:49;17.10;99.90
26336;DHT22;14047;50.936;4.654;2023-10-08T03:47:24;17.10;99.90
26336;DHT22;14047;50.936;4.654;2023-10-08T03:49:52;17.10;99.90
26336;DHT22;14047;50.936;4.654;2023-10-08T03:52:20;17.00;99.90
26336;DHT22;14047;50.936;4.654;2023-10-08T03:54:52;17.00;99.90
26336;DHT22;14047;50.936;4.654;2023-10-08T03:57:47;16.90;99.90
26336;DHT22;14047;50.936;4.654;2023-10-08T04:00:22;16.80;99.90
26336;DHT22;14047;50.936;4.654;2023-10-08T04:02:55;16.80;99.90
26336;DHT22;14047;50.936;4.654;2023-10-08T04:05:22;16.80;99.90
26336;DHT22;14047;50.936;4.654;2023-10-08T04:07:59;16.80;99.90
26336;DHT22;14047;50.936;4.654;2023-10-08T04:10:30;16.80;99.90
26336;DHT22;14047;50.936;4.654;2023-10-08T04:13:08;16.80;99.90
26336;DHT22;14047;50.936;4.654;2023-10-08T04:15:35;16.60;99.90
26336;DHT22;14047;50.936;4.654;2023-10-08T04:18:07;16.60;99.90
26336;DHT22;14047;50.936;4.654;2023-10-08T04:20:33;16.50;99.90
26336;DHT22;14047;50.936;4.654;2023-10-08T04:23:00;16.50;99.90
26336;DHT22;14047;50.936;4.654;2023-10-08T04:25:26;16.50;99.90
26336;DHT22;14047;50.936;4.654;2023-10-08T04:27:56;16.50;99.90
26336;DHT22;14047;50.936;4.654;2023-10-08T04:30:26;16.60;99.90
26336;DHT22;14047;50.936;4.654;2023-10-08T04:33:02;16.60;99.90
26336;DHT22;14047;50.936;4.654;2023-10-08T04:35:40;16.60;99.90
26336;DHT22;14047;50.936;4.654;2023-10-08T04:38:20;16.50;99.90
26336;DHT22;14047;50.936;4.654;2023-10-08T04:40:52;16.50;99.90
26336;DHT22;14047;50.936;4.654;2023-10-08T04:43:21;16.50;99.90
26336;DHT22;14047;50.936;4.654;2023-10-08T04:45:57;16.40;99.90
26336;DHT22;14047;50.936;4.654;2023-10-08T04:48:24;16.40;99.90
26336;DHT22;14047;50.936;4.654;2023-10-08T04:50:52;16.30;99.90
26336;DHT22;14047;50.936;4.654;2023-10-08T04:53:32;16.20;99.90
26336;DHT22;14047;50.936;4.654;2023-10-08T04:56:03;16.20;99.90
26336;DHT22;14047;50.936;4.654;2023-10-08T04:58:32;16.10;99.90
26336;DHT22;14047;50.936;4.654;2023-10-08T05:01:00;16.00;99.90
26336;DHT22;14047;50.936;4.654;2023-10-08T05:03:47;16.00;99.90
26336;DHT22;14047;50.936;4.654;2023-10-08T05:06:40;15.90;99.90
26336;DHT22;14047;50.936;4.654;2023-10-08T05:09:16;15.80;99.90
26336;DHT22;14047;50.936;4.654;2023-10-08T05:11:46;15.70;99.90
26336;DHT22;14047;50.936;4.654;2023-10-08T05:14:23;15.70;99.90
26336;DHT22;14047;50.936;4.654;2023-10-08T05:17:00;15.60;99.90
26336;DHT22;14047;50.936;4.654;2023-10-08T05:19:32;15.60;99.90
26336;DHT22;14047;50.936;4.654;2023-10-08T05:22:11;15.40;99.90
26336;DHT22;14047;50.936;4.654;2023-10-08T05:24:47;15.40;99.90
26336;DHT22;14047;50.936;4.654;2023-10-08T05:27:37;15.40;99.90
26336;DHT22;14047;50.936;4.654;2023-10-08T05:30:23;15.40;99.90
26336;DHT22;14047;50.936;4.654;2023-10-08T05:33:09;15.30;99.90
26336;DHT22;14047;50.936;4.654;2023-10-08T05:35:39;15.30;99.90
26336;DHT22;14047;50.936;4.654;2023-10-08T05:38:08;15.30;99.90
26336;DHT22;14047;50.936;4.654;2023-10-08T05:40:49;15.30;99.90
26336;DHT22;14047;50.936;4.654;2023-10-08T05:43:35;15.30;99.90
26336;DHT22;14047;50.936;4.654;2023-10-08T05:46:15;15.30;99.90
26336;DHT22;14047;50.936;4.654;2023-10-08T05:48:52;15.30;99.90
26336;DHT22;14047;50.936;4.654;2023-10-08T05:51:28;15.30;99.90
26336;DHT22;14047;50.936;4.654;2023-10-08T05:54:24;15.20;99.90
26336;DHT22;14047;50.936;4.654;2023-10-08T05:57:06;15.20;99.90
26336;DHT22;14047;50.936;4.654;2023-10-08T05:59:39;15.20;99.90
26336;DHT22;14047;50.936;4.654;2023-10-08T06:02:26;15.20;99.90
26336;DHT22;14047;50.936;4.654;2023-10-08T06:04:53;15.20;99.90
26336;DHT22;14047;50.936;4.654;2023-10-08T06:10:28;15.20;99.90
26336;DHT22;14047;50.936;4.654;2023-10-08T06:13:09;15.20;99.90
26336;DHT22;14047;50.936;4.654;2023-10-08T06:15:40;15.20;99.90
26336;DHT22;14047;50.936;4.654;2023-10-08T06:18:24;15.30;99.90
26336;DHT22;14047;50.936;4.654;2023-10-08T06:20:53;15.30;99.90
26336;DHT22;14047;50.936;4.654;2023-10-08T06:23:27;15.30;99.90
26336;DHT22;14047;50.936;4.654;2023-10-08T06:26:03;15.40;99.90
26336;DHT22;14047;50.936;4.654;2023-10-08T06:28:41;15.50;99.90
26336;DHT22;14047;50.936;4.654;2023-10-08T06:31:07;15.60;99.90
26336;DHT22;14047;50.936;4.654;2023-10-08T06:33:44;15.60;99.90
26336;DHT22;14047;50.936;4.654;2023-10-08T06:36:10;15.70;99.90
26336;DHT22;14047;50.936;4.654;2023-10-08T06:38:37;15.80;99.90
26336;DHT22;14047;50.936;4.654;2023-10-08T06:41:05;15.90;99.90
26336;DHT22;14047;50.936;4.654;2023-10-08T06:43:41;16.00;99.90
26336;DHT22;14047;50.936;4.654;2023-10-08T06:46:29;16.10;99.90
26336;DHT22;14047;50.936;4.654;2023-10-08T06:49:03;16.20;99.90
26336;DHT22;14047;50.936;4.654;2023-10-08T06:51:29;16.30;99.90
26336;DHT22;14047;50.936;4.654;2023-10-08T06:53:58;16.30;99.90
26336;DHT22;14047;50.936;4.654;2023-10-08T06:56:28;16.40;99.90
26336;DHT22;14047;50.936;4.654;2023-10-08T06:58:54;16.50;99.90
26336;DHT22;14047;50.936;4.654;2023-10-08T07:01:20;16.60;99.90
26336;DHT22;14047;50.936;4.654;2023-10-08T07:03:47;16.60;99.90
26336;DHT22;14047;50.936;4.654;2023-10-08T07:06:18;16.70;99.90
26336;DHT22;14047;50.936;4.654;2023-10-08T07:08:58;16.80;99.90
26336;DHT22;14047;50.936;4.654;2023-10-08T07:11:26;16.90;99.90
26336;DHT22;14047;50.936;4.654;2023-10-08T07:13:55;17.00;99.90
26336;DHT22;14047;50.936;4.654;2023-10-08T07:16:22;17.10;99.90
26336;DHT22;14047;50.936;4.654;2023-10-08T07:18:48;17.20;99.90
26336;DHT22;14047;50.936;4.654;2023-10-08T07:21:19;17.30;99.90
26336;DHT22;14047;50.936;4.654;2023-10-08T07:23:49;17.40;99.90
26336;DHT22;14047;50.936;4.654;2023-10-08T07:26:26;17.50;99.90
26336;DHT22;14047;50.936;4.654;2023-10-08T07:28:52;17.60;99.90
26336;DHT22;14047;50.936;4.654;2023-10-08T07:31:20;17.70;99.90
26336;DHT22;14047;50.936;4.654;2023-10-08T07:33:53;17.80;99.90
26336;DHT22;14047;50.936;4.654;2023-10-08T07:36:26;17.90;99.90
26336;DHT22;14047;50.936;4.654;2023-10-08T07:38:53;18.00;99.90
26336;DHT22;14047;50.936;4.654;2023-10-08T07:41:20;18.20;99.90
26336;DHT22;14047;50.936;4.654;2023-10-08T07:43:49;18.30;99.90
26336;DHT22;14047;50.936;4.654;2023-10-08T07:46:25;18.40;99.90
26336;DHT22;14047;50.936;4.654;2023-10-08T07:48:54;18.50;99.90
26336;DHT22;14047;50.936;4.654;2023-10-08T07:51:20;18.60;99.90
26336;DHT22;14047;50.936;4.654;2023-10-08T07:53:51;18.60;99.90
26336;DHT22;14047;50.936;4.654;2023-10-08T07:56:25;18.70;99.90
26336;DHT22;14047;50.936;4.654;2023-10-08T07:58:52;18.80;99.90
26336;DHT22;14047;50.936;4.654;2023-10-08T08:01:22;18.80;99.90
26336;DHT22;14047;50.936;4.654;2023-10-08T08:03:50;18.80;99.90
26336;DHT22;14047;50.936;4.654;2023-10-08T08:06:17;19.00;99.90
26336;DHT22;14047;50.936;4.654;2023-10-08T08:08:43;19.10;99.90
26336;DHT22;14047;50.936;4.654;2023-10-08T08:11:10;19.10;99.90
26336;DHT22;14047;50.936;4.654;2023-10-08T08:13:46;19.00;99.90
26336;DHT22;14047;50.936;4.654;2023-10-08T08:16:12;19.10;99.90
26336;DHT22;14047;50.936;4.654;2023-10-08T08:18:51;19.20;99.90
26336;DHT22;14047;50.936;4.654;2023-10-08T08:21:26;19.10;99.90
26336;DHT22;14047;50.936;4.654;2023-10-08T08:23:52;19.10;99.90
26336;DHT22;14047;50.936;4.654;2023-10-08T08:26:25;19.10;99.90
26336;DHT22;14047;50.936;4.654;2023-10-08T08:28:55;19.10;99.90
26336;DHT22;14047;50.936;4.654;2023-10-08T08:31:24;19.20;99.90
26336;DHT22;14047;50.936;4.654;2023-10-08T08:33:51;19.30;99.90
26336;DHT22;14047;50.936;4.654;2023-10-08T08:36:29;19.50;99.90
26336;DHT22;14047;50.936;4.654;2023-10-08T08:38:56;19.30;99.90
26336;DHT22;14047;50.936;4.654;2023-10-08T08:41:22;19.50;99.90
26336;DHT22;14047;50.936;4.654;2023-10-08T08:43:51;19.70;99.90
26336;DHT22;14047;50.936;4.654;2023-10-08T08:46:37;19.80;99.90
26336;DHT22;14047;50.936;4.654;2023-10-08T08:49:08;19.80;99.90
26336;DHT22;14047;50.936;4.654;2023-10-08T08:51:35;19.70;99.90
26336;DHT22;14047;50.936;4.654;2023-10-08T08:54:02;19.70;99.90
26336;DHT22;14047;50.936;4.654;2023-10-08T08:56:41;19.90;99.90
26336;DHT22;14047;50.936;4.654;2023-10-08T08:59:09;19.70;99.90
26336;DHT22;14047;50.936;4.654;2023-10-08T09:01:41;19.90;99.90
26336;DHT22;14047;50.936;4.654;2023-10-08T09:04:08;20.00;99.90
26336;DHT22;14047;50.936;4.654;2023-10-08T09:06:35;20.00;99.90
26336;DHT22;14047;50.936;4.654;2023-10-08T09:09:07;20.00;99.90
26336;DHT22;14047;50.936;4.654;2023-10-08T09:11:52;20.10;99.90
26336;DHT22;14047;50.936;4.654;2023-10-08T09:14:24;20.30;99.90
26336;DHT22;14047;50.936;4.654;2023-10-08T09:16:53;20.40;99.90
26336;DHT22;14047;50.936;4.654;2023-10-08T09:19:20;20.60;99.90
26336;DHT22;14047;50.936;4.654;2023-10-08T09:22:09;20.60;99.90
26336;DHT22;14047;50.936;4.654;2023-10-08T09:24:40;20.30;99.90
26336;DHT22;14047;50.936;4.654;2023-10-08T09:27:10;20.40;99.90
26336;DHT22;14047;50.936;4.654;2023-10-08T09:29:46;20.40;99.90
26336;DHT22;14047;50.936;4.654;2023-10-08T09:32:13;20.60;99.90
26336;DHT22;14047;50.936;4.654;2023-10-08T09:34:40;20.60;99.90
26336;DHT22;14047;50.936;4.654;2023-10-08T09:37:06;20.80;99.90
26336;DHT22;14047;50.936;4.654;2023-10-08T09:39:33;21.00;99.90
26336;DHT22;14047;50.936;4.654;2023-10-08T09:42:01;21.10;99.90
26336;DHT22;14047;50.936;4.654;2023-10-08T09:44:37;21.10;99.90
26336;DHT22;14047;50.936;4.654;2023-10-08T09:47:05;21.30;99.90
26336;DHT22;14047;50.936;4.654;2023-10-08T09:49:47;21.20;99.90
26336;DHT22;14047;50.936;4.654;2023-10-08T09:52:17;21.40;99.90
26336;DHT22;14047;50.936;4.654;2023-10-08T09:54:59;21.40;99.90
26336;DHT22;14047;50.936;4.654;2023-10-08T09:57:26;21.50;99.90
26336;DHT22;14047;50.936;4.654;2023-10-08T09:59:52;21.40;99.90
26336;DHT22;14047;50.936;4.654;2023-10-08T10:02:19;21.50;99.90
26336;DHT22;14047;50.936;4.654;2023-10-08T10:04:50;21.70;99.90
26336;DHT22;14047;50.936;4.654;2023-10-08T10:07:19;21.70;99.90
26336;DHT22;14047;50.936;4.654;2023-10-08T10:09:50;21.80;99.90
26336;DHT22;14047;50.936;4.654;2023-10-08T10:12:34;21.90;99.90
26336;DHT22;14047;50.936;4.654;2023-10-08T10:15:01;22.20;99.90
26336;DHT22;14047;50.936;4.654;2023-10-08T10:17:27;22.30;99.90
26336;DHT22;14047;50.936;4.654;2023-10-08T10:20:01;22.40;99.90
26336;DHT22;14047;50.936;4.654;2023-10-08T10:22:29;22.50;99.90
26336;DHT22;14047;50.936;4.654;2023-10-08T10:24:59;22.70;99.90
26336;DHT22;14047;50.936;4.654;2023-10-08T10:27:30;22.60;99.90
26336;DHT22;14047;50.936;4.654;2023-10-08T10:30:03;22.60;99.90
26336;DHT22;14047;50.936;4.654;2023-10-08T10:32:37;22.60;99.90
26336;DHT22;14047;50.936;4.654;2023-10-08T10:35:03;22.50;99.90
26336;DHT22;14047;50.936;4.654;2023-10-08T10:37:32;22.50;99.90
26336;DHT22;14047;50.936;4.654;2023-10-08T10:40:07;22.70;99.90
26336;DHT22;14047;50.936;4.654;2023-10-08T10:42:38;22.90;99.90
26336;DHT22;14047;50.936;4.654;2023-10-08T10:45:15;23.00;99.90
26336;DHT22;14047;50.936;4.654;2023-10-08T10:47:59;23.10;99.90
26336;DHT22;14047;50.936;4.654;2023-10-08T10:50:39;23.30;99.90
26336;DHT22;14047;50.936;4.654;2023-10-08T10:53:17;23.40;99.90
26336;DHT22;14047;50.936;4.654;2023-10-08T10:55:45;23.50;99.90
26336;DHT22;14047;50.936;4.654;2023-10-08T10:58:28;23.60;99.90
26336;DHT22;14047;50.936;4.654;2023-10-08T11:00:54;23.80;99.90
26336;DHT22;14047;50.936;4.654;2023-10-08T11:03:24;24.00;99.90
26336;DHT22;14047;50.936;4.654;2023-10-08T11:05:54;24.10;99.90
26336;DHT22;14047;50.936;4.654;2023-10-08T11:08:21;24.20;99.90
26336;DHT22;14047;50.936;4.654;2023-10-08T11:10:51;24.30;99.90
26336;DHT22;14047;50.936;4.654;2023-10-08T11:13:19;24.40;99.90
26336;DHT22;14047;50.936;4.654;2023-10-08T11:15:47;24.40;99.90
26336;DHT22;14047;50.936;4.654;2023-10-08T11:18:23;24.50;99.90
26336;DHT22;14047;50.936;4.654;2023-10-08T11:20:50;24.50;99.90
26336;DHT22;14047;50.936;4.654;2023-10-08T11:23:37;24.60;99.90
26336;DHT22;14047;50.936;4.654;2023-10-08T11:26:05;24.70;99.90
26336;DHT22;14047;50.936;4.654;2023-10-08T11:28:37;24.90;99.90
26336;DHT22;14047;50.936;4.654;2023-10-08T11:31:11;25.00;99.90
26336;DHT22;14047;50.936;4.654;2023-10-08T11:33:38;25.00;99.90
26336;DHT22;14047;50.936;4.654;2023-10-08T11:36:06;24.80;99.90
26336;DHT22;14047;50.936;4.654;2023-10-08T11:38:40;24.80;99.90
26336;DHT22;14047;50.936;4.654;2023-10-08T11:41:14;24.80;99.90
26336;DHT22;14047;50.936;4.654;2023-10-08T11:43:53;24.70;99.90
26336;DHT22;14047;50.936;4.654;2023-10-08T11:46:27;24.40;99.90
26336;DHT22;14047;50.936;4.654;2023-10-08T11:48:59;24.50;99.90
26336;DHT22;14047;50.936;4.654;2023-10-08T11:51:34;24.50;99.90
26336;DHT22;14047;50.936;4.654;2023-10-08T11:54:01;24.40;99.90
26336;DHT22;14047;50.936;4.654;2023-10-08T11:56:31;24.50;99.90
26336;DHT22;14047;50.936;4.654;2023-10-08T11:59:02;24.70;99.90
26336;DHT22;14047;50.936;4.654;2023-10-08T12:01:31;24.70;99.90
26336;DHT22;14047;50.936;4.654;2023-10-08T12:04:04;24.70;99.90
26336;DHT22;14047;50.936;4.654;2023-10-08T12:06:31;24.70;99.90
26336;DHT22;14047;50.936;4.654;2023-10-08T12:08:58;24.90;99.90
26336;DHT22;14047;50.936;4.654;2023-10-08T12:11:27;25.00;99.90
26336;DHT22;14047;50.936;4.654;2023-10-08T12:14:00;25.10;99.90
26336;DHT22;14047;50.936;4.654;2023-10-08T12:16:26;25.30;99.90
26336;DHT22;14047;50.936;4.654;2023-10-08T12:18:56;25.60;99.90
26336;DHT22;14047;50.936;4.654;2023-10-08T12:21:28;25.70;99.90
26336;DHT22;14047;50.936;4.654;2023-10-08T12:23:57;25.90;99.90
26336;DHT22;14047;50.936;4.654;2023-10-08T12:26:23;25.90;99.90
26336;DHT22;14047;50.936;4.654;2023-10-08T12:28:49;26.00;99.90
26336;DHT22;14047;50.936;4.654;2023-10-08T12:31:18;26.10;99.90
26336;DHT22;14047;50.936;4.654;2023-10-08T12:33:51;26.20;99.90
26336;DHT22;14047;50.936;4.654;2023-10-08T12:36:23;26.10;99.90
26336;DHT22;14047;50.936;4.654;2023-10-08T12:38:50;26.20;99.90
26336;DHT22;14047;50.936;4.654;2023-10-08T12:41:24;26.30;99.90
26336;DHT22;14047;50.936;4.654;2023-10-08T12:43:53;26.30;99.90
26336;DHT22;14047;50.936;4.654;2023-10-08T12:46:20;26.40;99.90
26336;DHT22;14047;50.936;4.654;2023-10-08T12:48:53;26.60;99.90
26336;DHT22;14047;50.936;4.654;2023-10-08T12:51:21;26.80;99.90
26336;DHT22;14047;50.936;4.654;2023-10-08T12:53:50;26.90;99.90
26336;DHT22;14047;50.936;4.654;2023-10-08T12:56:21;27.00;99.90
26336;DHT22;14047;50.936;4.654;2023-10-08T12:58:58;27.00;99.90
26336;DHT22;14047;50.936;4.654;2023-10-08T13:01:24;26.60;99.90
26336;DHT22;14047;50.936;4.654;2023-10-08T13:03:55;26.50;99.90
26336;DHT22;14047;50.936;4.654;2023-10-08T13:06:27;26.30;99.90
26336;DHT22;14047;50.936;4.654;2023-10-08T13:08:57;26.40;99.90
26336;DHT22;14047;50.936;4.654;2023-10-08T13:11:25;26.40;99.90
26336;DHT22;14047;50.936;4.654;2023-10-08T13:13:53;26.30;99.90
26336;DHT22;14047;50.936;4.654;2023-10-08T13:16:19;26.10;99.90
26336;DHT22;14047;50.936;4.654;2023-10-08T13:18:48;26.00;99.90
26336;DHT22;14047;50.936;4.654;2023-10-08T13:21:14;26.00;99.90
26336;DHT22;14047;50.936;4.654;2023-10-08T13:23:40;25.80;99.90
26336;DHT22;14047;50.936;4.654;2023-10-08T13:26:07;25.70;99.90
26336;DHT22;14047;50.936;4.654;2023-10-08T13:28:34;25.70;99.90
26336;DHT22;14047;50.936;4.654;2023-10-08T13:31:02;25.90;99.90
26336;DHT22;14047;50.936;4.654;2023-10-08T13:33:41;26.00;99.90
26336;DHT22;14047;50.936;4.654;2023-10-08T13:36:15;26.00;99.90
26336;DHT22;14047;50.936;4.654;2023-10-08T13:38:42;25.90;99.90
26336;DHT22;14047;50.936;4.654;2023-10-08T13:41:09;25.90;99.90
26336;DHT22;14047;50.936;4.654;2023-10-08T13:43:50;25.70;99.90
26336;DHT22;14047;50.936;4.654;2023-10-08T13:46:25;25.60;99.90
26336;DHT22;14047;50.936;4.654;2023-10-08T13:48:51;25.60;99.90
26336;DHT22;14047;50.936;4.654;2023-10-08T13:51:20;25.70;99.90
26336;DHT22;14047;50.936;4.654;2023-10-08T13:53:53;25.80;99.90
26336;DHT22;14047;50.936;4.654;2023-10-08T13:56:23;25.90;99.90
26336;DHT22;14047;50.936;4.654;2023-10-08T13:58:56;26.00;99.90
26336;DHT22;14047;50.936;4.654;2023-10-08T14:01:33;26.00;99.90
26336;DHT22;14047;50.936;4.654;2023-10-08T14:04:00;25.90;99.90
26336;DHT22;14047;50.936;4.654;2023-10-08T14:06:32;26.10;99.90
26336;DHT22;14047;50.936;4.654;2023-10-08T14:08:58;26.40;99.90
26336;DHT22;14047;50.936;4.654;2023-10-08T14:11:26;26.50;99.90
26336;DHT22;14047;50.936;4.654;2023-10-08T14:13:56;26.70;99.90
26336;DHT22;14047;50.936;4.654;2023-10-08T14:16:25;26.60;99.90
26336;DHT22;14047;50.936;4.654;2023-10-08T14:18:55;26.30;99.90
26336;DHT22;14047;50.936;4.654;2023-10-08T14:21:25;26.20;99.90
26336;DHT22;14047;50.936;4.654;2023-10-08T14:23:56;26.00;99.90
26336;DHT22;14047;50.936;4.654;2023-10-08T14:26:29;26.00;99.90
26336;DHT22;14047;50.936;4.654;2023-10-08T14:29:02;26.20;99.90
26336;DHT22;14047;50.936;4.654;2023-10-08T14:31:33;26.40;99.90
26336;DHT22;14047;50.936;4.654;2023-10-08T14:34:05;26.50;99.90
26336;DHT22;14047;50.936;4.654;2023-10-08T14:36:32;26.70;99.90
26336;DHT22;14047;50.936;4.654;2023-10-08T14:39:17;26.90;99.90
26336;DHT22;14047;50.936;4.654;2023-10-08T14:42:03;26.80;99.90
26336;DHT22;14047;50.936;4.654;2023-10-08T14:44:47;26.80;99.90
26336;DHT22;14047;50.936;4.654;2023-10-08T14:47:16;27.00;99.90
26336;DHT22;14047;50.936;4.654;2023-10-08T14:49:42;26.80;99.90
26336;DHT22;14047;50.936;4.654;2023-10-08T14:52:12;26.60;99.90
26336;DHT22;14047;50.936;4.654;2023-10-08T14:54:38;26.50;99.90
26336;DHT22;14047;50.936;4.654;2023-10-08T14:57:04;26.50;99.90
26336;DHT22;14047;50.936;4.654;2023-10-08T14:59:32;26.60;99.90
26336;DHT22;14047;50.936;4.654;2023-10-08T15:01:58;26.80;99.90
26336;DHT22;14047;50.936;4.654;2023-10-08T15:04:25;26.70;99.90
26336;DHT22;14047;50.936;4.654;2023-10-08T15:06:58;26.40;99.90
26336;DHT22;14047;50.936;4.654;2023-10-08T15:09:24;26.10;99.90
26336;DHT22;14047;50.936;4.654;2023-10-08T15:11:51;26.00;99.90
26336;DHT22;14047;50.936;4.654;2023-10-08T15:14:20;26.10;99.90
26336;DHT22;14047;50.936;4.654;2023-10-08T15:16:48;26.10;99.90
26336;DHT22;14047;50.936;4.654;2023-10-08T15:19:22;26.10;99.90
26336;DHT22;14047;50.936;4.654;2023-10-08T15:21:51;26.30;99.90
26336;DHT22;14047;50.936;4.654;2023-10-08T15:24:18;26.70;99.90
26336;DHT22;14047;50.936;4.654;2023-10-08T15:26:54;27.00;99.90
26336;DHT22;14047;50.936;4.654;2023-10-08T15:29:21;27.00;99.90
26336;DHT22;14047;50.936;4.654;2023-10-08T15:31:48;27.30;99.90
26336;DHT22;14047;50.936;4.654;2023-10-08T15:34:15;27.50;99.90
26336;DHT22;14047;50.936;4.654;2023-10-08T15:36:41;27.40;99.90
26336;DHT22;14047;50.936;4.654;2023-10-08T15:39:08;27.50;99.90
26336;DHT22;14047;50.936;4.654;2023-10-08T15:41:38;27.40;99.90
26336;DHT22;14047;50.936;4.654;2023-10-08T15:44:05;27.50;99.90
26336;DHT22;14047;50.936;4.654;2023-10-08T15:46:32;27.80;99.90
26336;DHT22;14047;50.936;4.654;2023-10-08T15:49:03;28.20;99.90
26336;DHT22;14047;50.936;4.654;2023-10-08T15:51:32;28.30;99.90
26336;DHT22;14047;50.936;4.654;2023-10-08T15:53:58;28.30;99.90
26336;DHT22;14047;50.936;4.654;2023-10-08T15:56:27;28.20;99.90
26336;DHT22;14047;50.936;4.654;2023-10-08T15:58:54;27.90;99.90